Time;durP1;ratioP1;P1;durP2;ratioP2;P2;SDS_P1;SDS_P2;PMS_P1;PMS_P2;Temp;Humidity;BMP_temperature;BMP_pressure;BME280_temperature;BME280_humidity;BME280_pressure;Samples;Min_cycle;Max_cycle;Signal;HPM_P1;HPM_P2
2021/11/29 00:04:35;19214.00;0.06;33.91;0.00;0.00;0.62;;;;;6.90;1.00;;;;;;2291201;60;1420;-80
2021/11/29 00:07:02;42983.00;0.14;75.05;0.00;0.00;0.62;;;;;6.70;1.00;;;;;;2285792;60;1052;-83
2021/11/29 00:09:29;55329.00;0.18;96.40;0.00;0.00;0.62;;;;;6.50;1.00;;;;;;2281661;60;1323;-86
2021/11/29 00:11:58;87704.00;0.29;152.34;0.00;0.00;0.62;;;;;6.50;1.00;;;;;;2285515;60;1015;-86
2021/11/29 00:14:26;221.00;0.00;1.00;0.00;0.00;0.62;;;;;6.50;1.00;;;;;;2276931;61;1088;-86
2021/11/29 00:16:53;89259.00;0.30;155.03;0.00;0.00;0.62;;;;;6.70;1.00;;;;;;2270129;61;1076;-83
2021/11/29 00:19:20;34675.00;0.12;60.67;0.00;0.00;0.62;;;;;6.70;1.00;;;;;;2277010;61;2002;-85
2021/11/29 00:26:42;50457.00;0.17;87.98;0.00;0.00;0.62;;;;;6.60;1.00;;;;;;2287101;60;1387;-85
2021/11/29 00:29:09;173077.00;0.58;299.57;0.00;0.00;0.62;;;;;6.50;1.00;;;;;;2276788;61;1354;-85
2021/11/29 00:31:38;16515.00;0.06;29.23;0.00;0.00;0.62;;;;;6.50;1.00;;;;;;2266876;61;1061;-84
2021/11/29 00:34:05;51869.00;0.17;90.42;0.00;0.00;0.62;;;;;6.50;1.00;;;;;;2276932;61;1058;-86
2021/11/29 00:36:33;176202.00;0.59;304.95;0.00;0.00;0.62;;;;;6.70;1.00;;;;;;2268431;61;1049;-86
2021/11/29 00:43:56;33838.00;0.11;59.23;0.00;0.00;0.62;;;;;6.60;1.00;;;;;;2290712;60;1396;-85
2021/11/29 00:51:26;66079.00;0.22;114.98;0.00;0.00;0.62;;;;;6.40;1.00;;;;;;2284035;61;1286;-90
2021/11/29 00:53:53;17484.00;0.06;30.91;0.00;0.00;0.62;;;;;6.60;1.00;;;;;;2281532;61;813;-91
2021/11/29 00:56:21;0.00;0.00;0.62;0.00;0.00;0.62;;;;;6.80;1.00;;;;;;2281918;61;927;-88
2021/11/29 01:01:20;46845.00;0.16;81.73;0.00;0.00;0.62;;;;;7.00;1.00;;;;;;2283451;61;1287;-88
2021/11/29 01:03:47;76207.00;0.25;132.48;0.00;0.00;0.62;;;;;7.00;1.00;;;;;;2281904;61;395;-92
2021/11/29 01:06:14;33142.00;0.11;58.02;0.00;0.00;0.62;;;;;7.10;1.00;;;;;;2277262;61;944;-85
2021/11/29 01:08:43;47369.00;0.16;82.64;0.00;0.00;0.62;;;;;7.60;1.00;;;;;;2273151;61;1440;-86
2021/11/29 01:18:33;41774.00;0.14;72.96;0.00;0.00;0.62;;;;;7.30;1.00;;;;;;2519429;39;3744;31
2021/11/29 01:30:54;62905.00;0.21;109.50;0.00;0.00;0.62;;;;;7.30;1.00;;;;;;2287937;61;1301;-89
2021/11/29 01:35:51;103412.00;0.34;179.46;0.00;0.00;0.62;;;;;7.20;1.00;;;;;;2283712;61;1330;-90
2021/11/29 02:00:33;64942.00;0.22;113.02;0.00;0.00;0.62;;;;;7.40;1.00;;;;;;2291426;60;1879;-89
2021/11/29 02:50:18;79932.00;0.27;138.92;0.00;0.00;0.62;;;;;6.30;1.00;;;;;;2465732;40;3742;31
2021/11/29 03:32:18;71876.00;0.24;125.00;0.00;0.00;0.62;;;;;6.60;1.00;;;;;;2283845;61;884;-88
2021/11/29 04:09:15;83580.00;0.28;145.22;0.00;0.00;0.62;;;;;7.10;1.00;;;;;;2282901;60;1467;-84
2021/11/29 04:11:42;95835.00;0.32;166.38;0.00;0.00;0.62;;;;;7.10;1.00;;;;;;2281231;61;962;-81
2021/11/29 04:14:09;157173.00;0.52;272.17;0.00;0.00;0.62;;;;;7.20;1.00;;;;;;2274274;61;1021;-82
2021/11/29 04:19:04;105040.00;0.35;182.27;0.00;0.00;0.62;;;;;7.20;1.00;;;;;;2278718;61;1338;-85
2021/11/29 04:21:31;274009.00;0.91;473.24;0.00;0.00;0.62;;;;;7.00;1.00;;;;;;2268759;61;2023;-86
2021/11/29 04:23:58;151101.00;0.50;261.70;19540.00;0.07;34.47;;;;;7.10;1.00;;;;;;2268994;61;1043;-84
2021/11/29 04:26:28;67607.00;0.23;117.63;0.00;0.00;0.62;;;;;7.00;1.00;;;;;;2268972;61;1075;-84
2021/11/29 04:28:55;33009.00;0.11;57.79;0.00;0.00;0.62;;;;;7.00;1.00;;;;;;2268923;61;1406;-84
2021/11/29 04:31:22;69302.00;0.23;120.55;0.00;0.00;0.62;;;;;7.00;1.00;;;;;;2268980;61;1076;-83
2021/11/29 04:33:49;36375.00;0.12;63.62;0.00;0.00;0.62;;;;;6.90;1.00;;;;;;2268894;61;981;-86
2021/11/29 04:36:16;42543.00;0.14;74.29;0.00;0.00;0.62;;;;;6.80;1.00;;;;;;2264756;61;997;-86
2021/11/29 04:38:43;47925.00;0.16;83.60;0.00;0.00;0.62;;;;;6.90;1.00;;;;;;2265748;61;1448;-84
2021/11/29 04:41:10;49928.00;0.17;87.06;0.00;0.00;0.62;;;;;6.90;1.00;;;;;;2265959;61;1991;-84
2021/11/29 04:43:38;55762.00;0.19;97.15;0.00;0.00;0.62;;;;;6.90;1.00;;;;;;2269242;61;1026;-86
2021/11/29 04:48:35;82374.00;0.27;143.14;0.00;0.00;0.62;;;;;6.90;1.00;;;;;;2282716;60;1385;-84
2021/11/29 04:51:02;48902.00;0.16;85.29;0.00;0.00;0.62;;;;;6.90;1.00;;;;;;2281286;61;1079;-85
2021/11/29 04:55:57;46561.00;0.16;81.24;0.00;0.00;0.62;;;;;6.80;1.00;;;;;;2286930;60;1411;-82
2021/11/29 04:58:24;60152.00;0.20;104.74;0.00;0.00;0.62;;;;;6.90;1.00;;;;;;2276656;61;1471;-82
2021/11/29 05:00:53;177478.00;0.59;307.15;0.00;0.00;0.62;;;;;7.20;1.00;;;;;;2273263;61;1995;-84
2021/11/29 05:03:20;75613.00;0.25;131.46;0.00;0.00;0.62;;;;;7.40;1.00;;;;;;2270057;61;1025;-83
2021/11/29 05:05:47;55929.00;0.19;97.44;0.00;0.00;0.62;;;;;7.70;1.00;;;;;;2270129;61;1010;-82
2021/11/29 05:08:14;61784.00;0.21;107.56;0.00;0.00;0.62;;;;;8.30;1.00;;;;;;2276675;61;1399;-84
2021/11/29 05:10:40;88874.00;0.30;154.36;0.00;0.00;0.62;;;;;7.90;1.00;;;;;;2270061;61;1020;-85
2021/11/29 05:13:07;46055.00;0.15;80.36;0.00;0.00;0.62;;;;;7.70;1.00;;;;;;2276792;61;927;-84
2021/11/29 05:15:34;75423.00;0.25;131.13;0.00;0.00;0.62;;;;;7.70;1.00;;;;;;2277659;60;1096;-82
2021/11/29 05:18:03;100778.00;0.34;174.91;0.00;0.00;0.62;;;;;8.10;1.00;;;;;;2285235;60;1403;-83
2021/11/29 05:22:57;10914.00;0.04;19.53;0.00;0.00;0.62;;;;;8.20;1.00;;;;;;2283250;61;1426;-82
2021/11/29 05:25:25;281161.00;0.94;485.53;0.00;0.00;0.62;;;;;8.20;1.00;;;;;;2281133;60;1015;-84
2021/11/29 05:27:52;68137.00;0.23;118.54;0.00;0.00;0.62;;;;;8.20;1.00;;;;;;2272547;61;1127;-84
2021/11/29 05:30:18;97494.00;0.32;169.25;0.00;0.00;0.62;;;;;8.10;1.00;;;;;;2268450;61;1226;-84
2021/11/29 05:32:45;68402.00;0.23;119.00;0.00;0.00;0.62;;;;;8.00;1.00;;;;;;2268611;61;1049;-80
2021/11/29 05:35:14;77001.00;0.26;133.86;0.00;0.00;0.62;;;;;8.20;1.00;;;;;;2260485;61;1033;-86
2021/11/29 05:42:37;44411.00;0.15;77.52;0.00;0.00;0.62;;;;;8.80;1.00;;;;;;2282507;60;1156;-84
2021/11/29 05:45:04;0.00;0.00;0.62;0.00;0.00;0.62;;;;;9.10;1.00;;;;;;2272176;61;1136;-84
2021/11/29 05:47:31;37979.00;0.13;66.39;0.00;0.00;0.62;;;;;9.20;1.00;;;;;;2268844;61;1017;-80
2021/11/29 05:57:41;29990.00;0.10;52.57;0.00;0.00;0.62;;;;;9.40;1.00;;;;;;2278569;61;1174;-84
2021/11/29 06:00:11;39785.00;0.13;69.52;0.00;0.00;0.62;;;;;9.00;1.00;;;;;;2276144;60;2006;-85
2021/11/29 06:02:39;15441.00;0.05;27.37;0.00;0.00;0.62;;;;;8.80;1.00;;;;;;2276643;60;941;-84
2021/11/29 06:05:06;11658.00;0.04;20.82;0.00;0.00;0.62;;;;;8.50;1.00;;;;;;2272246;61;1047;-86
2021/11/29 06:10:01;55191.00;0.18;96.16;0.00;0.00;0.62;;;;;7.50;1.00;;;;;;2286426;60;1566;-83
2021/11/29 06:12:29;68376.00;0.23;118.95;0.00;0.00;0.62;;;;;6.90;1.00;;;;;;2284469;60;996;-85
2021/11/29 06:17:25;89262.00;0.30;155.03;0.00;0.00;0.62;;;;;6.60;1.00;;;;;;2287071;60;1356;-84
2021/11/29 06:27:16;66171.00;0.22;115.14;0.00;0.00;0.62;;;;;6.50;1.00;;;;;;2287054;61;1001;-87
2021/11/29 06:29:44;67983.00;0.23;118.27;0.00;0.00;0.62;;;;;6.60;1.00;;;;;;2274671;60;1483;-84
2021/11/29 06:34:40;112560.00;0.38;195.25;0.00;0.00;0.62;;;;;6.90;1.00;;;;;;2287238;61;1313;-87
2021/11/29 06:37:10;93219.00;0.31;161.87;0.00;0.00;0.62;;;;;7.20;1.00;;;;;;2273012;61;774;-87
2021/11/29 06:39:38;100750.00;0.34;174.87;0.00;0.00;0.62;;;;;7.40;1.00;;;;;;2272407;61;1408;-86
2021/11/29 06:42:06;42190.00;0.14;73.68;0.00;0.00;0.62;;;;;7.20;1.00;;;;;;2262435;61;2030;-82
2021/11/29 06:47:02;228660.00;0.76;395.24;0.00;0.00;0.62;;;;;7.60;1.00;;;;;;2287718;60;1416;-85
2021/11/29 06:52:02;107191.00;0.36;185.98;0.00;0.00;0.62;;;;;7.80;1.00;;;;;;2287662;60;1413;-86
2021/11/29 06:54:31;145028.00;0.48;251.24;0.00;0.00;0.62;;;;;7.90;1.00;;;;;;2276895;60;948;-85
2021/11/29 07:01:53;146296.00;0.49;253.42;0.00;0.00;0.62;;;;;7.80;1.00;;;;;;2287935;61;1899;-87
2021/11/29 07:09:17;138792.00;0.46;240.49;0.00;0.00;0.62;;;;;8.00;1.00;;;;;;2291862;60;1385;-87
2021/11/29 07:11:44;257303.00;0.86;444.51;0.00;0.00;0.62;;;;;8.30;1.00;;;;;;2276734;60;973;-83
2021/11/29 07:14:11;79669.00;0.27;138.47;0.00;0.00;0.62;;;;;8.30;1.00;;;;;;2266755;61;954;-82
2021/11/29 07:19:07;192302.00;0.64;332.67;0.00;0.00;0.62;;;;;8.20;1.00;;;;;;2287386;60;1416;-83
2021/11/29 07:21:33;286377.00;0.95;494.50;31468.00;0.10;55.12;;;;;8.20;1.00;;;;;;2278244;60;1914;-83
2021/11/29 07:24:00;180817.00;0.60;312.90;0.00;0.00;0.62;;;;;8.20;1.00;;;;;;2285551;60;1000;-83
2021/11/29 07:31:24;132597.00;0.44;229.81;0.00;0.00;0.62;;;;;8.10;1.00;;;;;;2287561;60;1394;-84
2021/11/29 07:36:19;104898.00;0.35;182.03;0.00;0.00;0.62;;;;;8.30;1.00;;;;;;2291558;60;1418;-79
2021/11/29 07:38:46;318286.00;1.06;549.35;0.00;0.00;0.62;;;;;8.30;1.00;;;;;;2289380;60;1399;-84
2021/11/29 07:41:13;221032.00;0.74;382.12;0.00;0.00;0.62;;;;;8.10;1.00;;;;;;2289365;60;1917;-84
2021/11/29 07:46:08;123285.00;0.41;213.75;0.00;0.00;0.62;;;;;8.10;1.00;;;;;;2287202;60;1392;-85
2021/11/29 07:48:36;253408.00;0.84;437.81;615.00;0.00;1.69;;;;;8.20;1.00;;;;;;2285545;60;1390;-85
2021/11/29 07:51:03;217317.00;0.72;375.73;0.00;0.00;0.62;;;;;8.10;1.00;;;;;;2285523;60;962;-83
2021/11/29 07:53:30;145599.00;0.49;252.22;0.00;0.00;0.62;;;;;8.20;1.00;;;;;;2285462;60;999;-83
2021/11/29 07:58:25;281270.00;0.94;485.72;20694.00;0.07;36.47;;;;;8.30;1.00;;;;;;2283075;60;1373;-86
2021/11/29 08:00:52;197681.00;0.66;341.93;0.00;0.00;0.62;;;;;8.40;1.00;;;;;;2270990;61;1919;-81
2021/11/29 08:03:19;102509.00;0.34;177.90;0.00;0.00;0.62;;;;;8.50;1.00;;;;;;2281375;60;906;-83
2021/11/29 08:05:47;109124.00;0.36;189.32;0.00;0.00;0.62;;;;;8.60;1.00;;;;;;2274237;60;1048;-84
2021/11/29 08:08:14;420072.00;1.40;724.31;73712.00;0.25;128.17;;;;;8.50;1.00;;;;;;2281370;61;1415;-86
2021/11/29 08:10:42;103544.00;0.35;179.69;0.00;0.00;0.62;;;;;8.30;1.00;;;;;;2270935;60;1005;-83
2021/11/29 08:13:13;335393.00;1.12;578.76;0.00;0.00;0.62;;;;;8.30;1.00;;;;;;2271104;61;930;-83
2021/11/29 08:15:40;146632.00;0.49;254.00;0.00;0.00;0.62;;;;;8.20;1.00;;;;;;2271109;61;977;-85
2021/11/29 08:18:08;252349.00;0.84;435.99;16538.00;0.06;29.27;;;;;8.10;1.00;;;;;;2270950;60;1455;-83
2021/11/29 08:20:35;84605.00;0.28;146.99;0.00;0.00;0.62;;;;;8.00;1.00;;;;;;2277510;61;1996;-81
2021/11/29 08:23:03;81831.00;0.27;142.20;0.00;0.00;0.62;;;;;7.80;1.00;;;;;;2281353;60;1051;-84
2021/11/29 08:25:30;156675.00;0.52;271.31;0.00;0.00;0.62;;;;;7.80;1.00;;;;;;2268819;61;951;-84
2021/11/29 08:27:57;135152.00;0.45;234.21;0.00;0.00;0.62;;;;;8.30;1.00;;;;;;2268858;61;1396;-84
2021/11/29 08:30:26;72326.00;0.24;125.78;0.00;0.00;0.62;;;;;8.00;1.00;;;;;;2261945;61;1002;-84
2021/11/29 08:32:54;77571.00;0.26;134.84;0.00;0.00;0.62;;;;;8.30;1.00;;;;;;2262042;61;945;-84
2021/11/29 08:35:21;198228.00;0.66;342.87;0.00;0.00;0.62;;;;;8.30;1.00;;;;;;2262047;61;1010;-84
2021/11/29 08:37:50;368839.00;1.23;636.24;11607.00;0.04;20.73;;;;;8.10;1.00;;;;;;2268795;61;1044;-82
2021/11/29 08:40:19;222971.00;0.74;385.46;0.00;0.00;0.62;;;;;8.20;1.00;;;;;;2268840;61;1420;-81
2021/11/29 08:42:47;102152.00;0.34;177.29;0.00;0.00;0.62;;;;;8.40;1.00;;;;;;2270759;61;1946;-82
2021/11/29 08:45:15;78499.00;0.26;136.44;0.00;0.00;0.62;;;;;8.30;1.00;;;;;;2281220;60;945;-85
2021/11/29 08:47:42;81619.00;0.27;141.83;0.00;0.00;0.62;;;;;8.40;1.00;;;;;;2281255;60;929;-84
2021/11/29 08:50:10;333179.00;1.11;574.95;0.00;0.00;0.62;;;;;8.80;1.00;;;;;;2270656;60;1424;-86
2021/11/29 08:52:37;136232.00;0.45;236.07;0.00;0.00;0.62;;;;;8.60;1.00;;;;;;2281124;61;885;-80
2021/11/29 08:55:06;432633.00;1.44;745.91;0.00;0.00;0.62;;;;;8.40;1.00;;;;;;2281056;60;973;-79
2021/11/29 08:57:35;65741.00;0.22;114.40;0.00;0.00;0.62;;;;;8.30;1.00;;;;;;2270903;60;943;-82
2021/11/29 09:00:04;42843.00;0.14;74.81;0.00;0.00;0.62;;;;;8.60;1.00;;;;;;2276068;60;1223;-84
2021/11/29 09:02:31;34947.00;0.12;61.14;0.00;0.00;0.62;;;;;8.40;1.00;;;;;;2268727;61;2005;-83
2021/11/29 09:04:58;182599.00;0.61;315.97;0.00;0.00;0.62;;;;;8.70;1.00;;;;;;2268799;61;1094;-84
2021/11/29 09:07:24;125634.00;0.42;217.80;0.00;0.00;0.62;;;;;8.70;1.00;;;;;;2258675;61;959;-85
2021/11/29 09:09:51;246864.00;0.82;426.56;41725.00;0.14;72.87;;;;;8.60;1.00;;;;;;2268846;61;1401;-85
2021/11/29 09:12:18;95791.00;0.32;166.31;0.00;0.00;0.62;;;;;8.50;1.00;;;;;;2268792;61;932;-82
2021/11/29 09:14:46;190922.00;0.64;330.30;0.00;0.00;0.62;;;;;8.60;1.00;;;;;;2256538;61;1009;-81
2021/11/29 09:19:41;31716.00;0.11;55.55;0.00;0.00;0.62;;;;;9.30;1.00;;;;;;2490170;39;3650;31
2021/11/29 09:22:08;142615.00;0.48;247.08;0.00;0.00;0.62;;;;;9.60;1.00;;;;;;2258960;61;2001;-81
2021/11/29 09:24:35;167997.00;0.56;290.82;0.00;0.00;0.62;;;;;9.80;1.00;;;;;;2257507;61;1029;-84
2021/11/29 09:27:02;95808.00;0.32;166.34;0.00;0.00;0.62;;;;;9.70;1.00;;;;;;2263309;61;949;-83
2021/11/29 09:29:30;138968.00;0.46;240.79;0.00;0.00;0.62;;;;;9.50;1.00;;;;;;2256987;60;1428;-85
2021/11/29 09:31:58;462676.00;1.54;797.59;123815.00;0.41;214.66;;;;;9.00;1.00;;;;;;2247401;60;932;-84
2021/11/29 09:34:26;126912.00;0.42;220.00;0.00;0.00;0.62;;;;;8.40;1.00;;;;;;2256966;60;1021;-82
2021/11/29 09:36:52;341731.00;1.14;589.65;0.00;0.00;0.62;;;;;8.00;1.00;;;;;;2245254;61;978;-81
2021/11/29 09:39:19;294977.00;0.98;509.29;49144.00;0.16;85.71;;;;;7.70;1.00;;;;;;2245937;61;1441;-81
2021/11/29 09:41:46;1219620.00;4.07;2125.73;197853.00;0.66;342.23;;;;;7.40;1.00;;;;;;2245499;61;1917;-82
2021/11/29 09:44:13;596795.00;1.99;1028.69;93379.00;0.31;162.14;;;;;7.60;1.00;;;;;;2258884;61;1013;-82
2021/11/29 09:46:40;579736.00;1.93;999.24;91842.00;0.31;159.49;;;;;7.80;1.00;;;;;;2262236;61;957;-80
2021/11/29 09:49:08;451517.00;1.51;778.39;91511.00;0.31;158.92;;;;;8.40;1.00;;;;;;2252071;61;1317;-84
2021/11/29 09:51:37;358673.00;1.20;618.77;0.00;0.00;0.62;;;;;7.80;1.00;;;;;;2252166;61;923;-84
2021/11/29 09:54:04;113571.00;0.38;196.99;0.00;0.00;0.62;;;;;8.00;1.00;;;;;;2264353;61;1001;-82
2021/11/29 09:56:32;98961.00;0.33;171.78;0.00;0.00;0.62;;;;;8.50;1.00;;;;;;2264436;61;933;-80
2021/11/29 09:58:59;230090.00;0.77;397.70;0.00;0.00;0.62;;;;;8.30;1.00;;;;;;2254517;61;1446;-83
2021/11/29 10:01:26;178979.00;0.60;309.73;0.00;0.00;0.62;;;;;8.00;1.00;;;;;;2262338;61;1911;-83
2021/11/29 10:03:54;118132.00;0.39;204.86;0.00;0.00;0.62;;;;;7.60;1.00;;;;;;2263871;61;966;-82
2021/11/29 10:06:22;125927.00;0.42;218.31;0.00;0.00;0.62;;;;;7.50;1.00;;;;;;2264380;61;933;-83
2021/11/29 10:08:50;141964.00;0.47;245.96;0.00;0.00;0.62;;;;;7.50;1.00;;;;;;2264361;61;1400;-83
2021/11/29 10:11:18;166278.00;0.55;287.86;0.00;0.00;0.62;;;;;7.40;1.00;;;;;;2262207;61;1034;-80
2021/11/29 10:13:48;153139.00;0.51;265.22;0.00;0.00;0.62;;;;;7.40;1.00;;;;;;2238727;61;1033;-82
2021/11/29 10:16:32;710858.00;2.37;1226.07;55198.00;0.18;96.17;;;;;7.40;1.00;;;;;;2248440;61;1016;-82
2021/11/29 10:19:00;379294.00;1.26;654.21;22378.00;0.07;39.39;;;;;7.60;1.00;;;;;;2250499;61;1306;-83
2021/11/29 10:21:28;1052039.00;3.51;1824.86;239920.00;0.80;414.61;;;;;7.80;1.00;;;;;;2257536;61;1975;-85
2021/11/29 10:23:58;118487536.00;394.96;67384088.00;0.00;0.00;0.62;;;;;8.20;1.00;;;;;;2257130;61;956;-84
2021/11/29 10:26:27;153534.00;0.51;265.90;0.00;0.00;0.62;;;;;8.30;1.00;;;;;;2260529;60;977;-81
2021/11/29 10:28:57;168569.00;0.56;291.80;0.00;0.00;0.62;;;;;8.20;1.00;;;;;;2260649;60;1286;-83
2021/11/29 10:31:28;160391.00;0.53;277.71;0.00;0.00;0.62;;;;;8.10;1.00;;;;;;2248397;61;1009;-82
2021/11/29 10:34:01;117520.00;0.39;203.80;13946.00;0.05;24.78;;;;;7.90;1.00;;;;;;2248582;61;977;-84
2021/11/29 10:36:32;255349.00;0.85;441.15;39680.00;0.13;69.33;;;;;8.10;1.00;;;;;;2248555;61;1009;-82
2021/11/29 10:39:04;564830.00;1.88;973.53;58037.00;0.19;101.08;;;;;8.10;1.00;;;;;;2248469;61;1298;-83
2021/11/29 10:41:36;143447.00;0.48;248.51;0.00;0.00;0.62;;;;;8.00;1.00;;;;;;2261491;61;2010;-82
2021/11/29 10:44:04;194091.00;0.65;335.75;0.00;0.00;0.62;;;;;8.00;1.00;;;;;;2245359;61;958;-82
2021/11/29 10:46:33;118926032.00;396.42;68135656.00;0.00;0.00;0.62;;;;;7.90;1.00;;;;;;2247908;61;1132;-83
2021/11/29 10:49:03;219223.00;0.73;379.01;0.00;0.00;0.62;;;;;8.10;1.00;;;;;;2244182;61;1423;-81
2021/11/29 10:51:32;312002.00;1.04;538.55;0.00;0.00;0.62;;;;;8.20;1.00;;;;;;2252684;61;997;-80
2021/11/29 10:54:01;245331.00;0.82;423.92;0.00;0.00;0.62;;;;;8.10;1.00;;;;;;2252803;61;1020;-83
2021/11/29 10:56:31;172886.00;0.58;299.24;272.00;0.00;1.09;;;;;8.30;1.00;;;;;;2246087;61;993;-81
2021/11/29 10:59:01;219966.00;0.73;380.29;0.00;0.00;0.62;;;;;8.60;1.00;;;;;;2252627;61;1392;-82
2021/11/29 11:01:40;1875936.00;6.25;3372.61;317301.00;1.06;547.66;;;;;8.50;1.00;;;;;;2246163;61;2001;-83
2021/11/29 11:04:09;1647959.00;5.49;2924.75;196561.00;0.66;340.00;;;;;8.50;1.00;;;;;;2244930;61;987;-80
2021/11/29 11:06:41;1040676.00;3.47;1804.65;167540.00;0.56;290.03;;;;;8.70;1.00;;;;;;2254947;61;912;-81
2021/11/29 11:09:14;373639.00;1.25;644.49;55950.00;0.19;97.47;;;;;9.10;1.00;;;;;;2250782;61;1474;-84
2021/11/29 11:11:44;175454.00;0.58;303.66;6553.00;0.02;11.98;;;;;9.20;1.00;;;;;;2253570;61;993;-81
2021/11/29 11:14:13;1073317.00;3.58;1862.77;21481.00;0.07;37.83;;;;;9.40;1.00;;;;;;2252751;61;1083;-84
2021/11/29 11:16:50;666146.00;2.22;1148.58;118471.00;0.39;205.44;;;;;9.30;1.00;;;;;;2252547;61;1041;-82
2021/11/29 11:19:39;311695.00;1.04;538.02;0.00;0.00;0.62;;;;;9.00;1.00;;;;;;2245992;61;1334;-83
2021/11/29 11:22:22;303992.00;1.01;524.78;39443.00;0.13;68.92;;;;;8.50;1.00;;;;;;2249879;61;1916;-81
2021/11/29 11:24:53;311306.00;1.04;537.35;65659.00;0.22;114.26;;;;;8.40;1.00;;;;;;2247796;61;932;-83
2021/11/29 11:27:21;2095844.00;6.99;3823.02;256829.00;0.86;443.70;;;;;8.50;1.00;;;;;;2247771;61;1016;-84
2021/11/29 11:29:53;539062.00;1.80;929.11;153072.00;0.51;265.10;;;;;8.60;1.00;;;;;;2242082;61;1298;-81
2021/11/29 11:32:27;110170.00;0.37;191.12;0.00;0.00;0.62;;;;;8.40;1.00;;;;;;2244936;61;1007;-85
2021/11/29 11:34:56;236493.00;0.79;408.72;2091.00;0.01;4.24;;;;;8.50;1.00;;;;;;2244922;61;1048;-80
2021/11/29 11:37:27;1187728.00;3.96;2068.05;144281.00;0.48;249.95;;;;;7.90;1.00;;;;;;2235348;61;1064;-84
2021/11/29 11:39:55;1213374.00;4.04;2114.42;117372.00;0.39;203.55;;;;;7.60;1.00;;;;;;2244953;61;1422;-82
2021/11/29 11:42:24;1477973.00;4.93;2601.74;180555.00;0.60;312.45;;;;;7.60;1.00;;;;;;2240879;61;1994;-83
2021/11/29 11:44:51;1086894.00;3.62;1887.00;151556.00;0.51;262.49;;;;;7.50;1.00;;;;;;2248910;61;952;-83
2021/11/29 11:47:19;226618.00;0.76;391.73;0.00;0.00;0.62;;;;;7.40;1.00;;;;;;2242468;61;1005;-85
2021/11/29 11:49:48;335782.00;1.12;579.42;32283.00;0.11;56.53;;;;;7.70;1.00;;;;;;2244962;61;1352;-83
2021/11/29 11:52:17;1029657.00;3.43;1785.07;25504.00;0.09;44.80;;;;;7.50;1.00;;;;;;2242079;61;949;-84
2021/11/29 11:54:47;967725.00;3.23;1675.39;48315.00;0.16;84.27;;;;;7.60;1.00;;;;;;2245772;61;955;-80
2021/11/29 11:57:19;182198.00;0.61;315.27;0.00;0.00;0.62;;;;;7.90;1.00;;;;;;2245673;61;1006;-80
2021/11/29 12:00:14;416440.00;1.39;718.07;13720.00;0.05;24.39;;;;;8.10;1.00;;;;;;2248876;61;1459;-81
2021/11/29 12:03:05;1308120.00;4.36;2286.97;191542.00;0.64;331.36;;;;;8.30;1.00;;;;;;2252404;61;1983;-84
2021/11/29 12:05:34;1375759.00;4.59;2411.44;234336.00;0.78;405.01;;;;;8.10;1.00;;;;;;2261884;61;1064;-80
2021/11/29 12:08:02;197740.00;0.66;342.03;27561.00;0.09;48.36;;;;;7.90;1.00;;;;;;2256079;61;1361;-83
2021/11/29 12:10:43;553945.00;1.85;954.76;29723.00;0.10;52.10;;;;;7.70;1.00;;;;;;2246916;61;986;-82
2021/11/29 12:13:13;119370.00;0.40;207.00;0.00;0.00;0.62;;;;;8.00;1.00;;;;;;2256754;61;974;-83
2021/11/29 12:15:43;1043602.00;3.48;1809.85;191138.00;0.64;330.67;;;;;7.70;1.00;;;;;;2253392;61;1053;-82
2021/11/29 12:18:13;2212623.00;7.38;4070.44;116396.00;0.39;201.87;;;;;7.50;1.00;;;;;;2256737;61;1427;-84
2021/11/29 12:20:40;750014.00;2.50;1294.08;25843.00;0.09;45.39;;;;;7.00;1.00;;;;;;2269218;61;1074;-85
2021/11/29 12:23:38;163500.00;0.55;283.07;0.00;0.00;0.62;;;;;7.40;1.00;;;;;;2248799;61;1924;-87
2021/11/29 12:26:06;391175.00;1.30;674.63;1646.00;0.01;3.47;;;;;7.70;1.00;;;;;;2242573;61;944;-81
2021/11/29 12:28:37;1090822.00;3.64;1894.02;107742.00;0.36;186.93;;;;;8.00;1.00;;;;;;2245099;61;1445;-83
2021/11/29 12:31:25;1553692.00;5.18;2744.56;262989.00;0.88;454.29;;;;;8.20;1.00;;;;;;2245306;61;1035;-86
2021/11/29 12:33:56;1013628.00;3.38;1756.62;15456.00;0.05;27.40;;;;;8.50;1.00;;;;;;2242600;61;958;-84
2021/11/29 12:36:24;191109.00;0.64;330.62;0.00;0.00;0.62;;;;;9.10;1.00;;;;;;2249045;61;1033;-87
2021/11/29 12:38:51;417925.00;1.39;720.62;15214.00;0.05;26.98;;;;;9.90;1.00;;;;;;2262707;61;1346;-83
2021/11/29 12:41:38;149636.00;0.50;259.18;2894.00;0.01;5.64;;;;;10.10;1.00;;;;;;2260696;61;972;-84
2021/11/29 12:44:06;80881.00;0.27;140.56;0.00;0.00;0.62;;;;;10.00;1.00;;;;;;2264347;61;953;-84
2021/11/29 12:49:06;1225862.00;4.09;2137.05;169048.00;0.56;292.63;;;;;9.40;1.00;;;;;;2286984;60;1412;-81
2021/11/29 12:51:45;410190.00;1.37;707.32;120147.00;0.40;208.34;;;;;9.40;1.00;;;;;;2281603;60;967;-82
2021/11/29 12:54:35;190157.00;0.63;328.98;0.00;0.00;0.62;;;;;9.00;1.00;;;;;;2284983;60;1024;-82
2021/11/29 12:57:28;563117.00;1.88;970.58;77870.00;0.26;135.36;;;;;8.70;1.00;;;;;;2281593;60;1005;-83
2021/11/29 12:59:58;188404.00;0.63;325.96;0.00;0.00;0.62;;;;;8.10;1.00;;;;;;2284971;60;1388;-83
2021/11/29 13:02:43;1948837.00;6.50;3519.79;180614.00;0.60;312.55;;;;;8.30;1.00;;;;;;2285201;60;1915;-82
2021/11/29 13:05:39;914628.00;3.05;1581.83;116017.00;0.39;201.21;;;;;7.90;1.00;;;;;;2264565;61;1048;-84
2021/11/29 13:08:09;715191.00;2.38;1233.59;244910.00;0.82;423.20;;;;;8.10;1.00;;;;;;2268617;61;1448;-85
2021/11/29 13:27:59;201462.00;0.67;348.44;0.00;0.00;0.62;;;;;8.50;1.00;;;;;;2267012;60;1435;-82
2021/11/29 13:30:28;655786.00;2.19;1130.65;8397.00;0.03;15.17;;;;;8.30;1.00;;;;;;2280693;61;933;-82
2021/11/29 13:32:58;1940615.00;6.47;3503.09;130537.00;0.44;226.26;;;;;8.10;1.00;;;;;;2272437;61;1031;-81
2021/11/29 13:35:25;833714.00;2.78;1439.99;161843.00;0.54;280.21;;;;;8.00;1.00;;;;;;2264375;61;1069;-84
2021/11/29 13:37:52;565795.00;1.89;975.19;51357.00;0.17;89.53;;;;;7.50;1.00;;;;;;2264344;61;1246;-82
2021/11/29 13:40:22;453518.00;1.51;781.83;0.00;0.00;0.62;;;;;7.40;1.00;;;;;;2264437;61;1252;-81
2021/11/29 13:42:51;1503291.00;5.01;2649.31;168000.00;0.56;290.82;;;;;7.60;1.00;;;;;;2264167;61;1994;-83
2021/11/29 13:45:22;605690.00;2.02;1044.05;123909.00;0.41;214.82;;;;;7.80;1.00;;;;;;2264540;61;1024;-82
2021/11/29 13:47:52;11172.00;0.04;19.98;0.00;0.00;0.62;;;;;7.40;1.00;;;;;;2258784;61;984;-84
2021/11/29 13:50:21;312125.00;1.04;538.76;42079.00;0.14;73.49;;;;;6.70;1.00;;;;;;2251275;60;1435;-84
2021/11/29 13:52:50;1086821.00;3.62;1886.87;113325.00;0.38;196.57;;;;;6.50;1.00;;;;;;2415777;40;3971;31
2021/11/29 13:57:49;117712.00;0.39;204.14;0.00;0.00;0.62;;;;;7.10;1.00;;;;;;2283089;60;1208;-84
2021/11/29 14:00:30;687986.00;2.29;1186.41;63889.00;0.21;111.20;;;;;7.40;1.00;;;;;;2281156;60;1475;-82
2021/11/29 14:03:10;680482.00;2.27;1173.41;21262.00;0.07;37.46;;;;;7.30;1.00;;;;;;2277174;60;1997;-84
2021/11/29 14:05:42;1543561.00;5.15;2725.36;209581.00;0.70;362.41;;;;;7.70;1.00;;;;;;2272251;61;953;-82
2021/11/29 14:08:12;791618.00;2.64;1366.51;124300.00;0.41;215.50;;;;;8.00;1.00;;;;;;2268854;61;1361;-82
2021/11/29 14:10:47;655194.00;2.18;1129.62;97777.00;0.33;169.73;;;;;8.40;1.00;;;;;;2267971;61;923;-84
2021/11/29 14:13:16;441151.00;1.47;760.56;100063.00;0.33;173.68;;;;;8.50;1.00;;;;;;2268304;61;1070;-84
2021/11/29 14:15:58;411553.00;1.37;709.67;101687.00;0.34;176.48;;;;;8.70;1.00;;;;;;2267495;61;1056;-82
2021/11/29 14:18:30;719942.00;2.40;1241.84;152071.00;0.51;263.38;;;;;8.60;1.00;;;;;;2261571;61;1483;-82
2021/11/29 14:21:00;123107368.00;410.36;75585288.00;122350992.00;407.84;74199360.00;;;;;8.40;1.00;;;;;;2260100;61;965;-83
2021/11/29 14:23:38;946752.00;3.16;1638.38;141868.00;0.47;245.79;;;;;7.90;1.00;;;;;;2261532;61;1988;-82
2021/11/29 14:26:06;482183.00;1.61;831.15;0.00;0.00;0.62;;;;;7.30;1.00;;;;;;2252336;61;962;-80
2021/11/29 14:28:34;702353.00;2.34;1211.32;0.00;0.00;0.62;;;;;7.60;1.00;;;;;;2255629;61;1467;-81
2021/11/29 14:31:03;1332783.00;4.44;2332.23;80702.00;0.27;140.25;;;;;7.70;1.00;;;;;;2260115;61;961;-81
2021/11/29 14:33:34;859620.00;2.87;1485.31;94294.00;0.31;163.72;;;;;8.20;1.00;;;;;;2260166;61;968;-80
2021/11/29 14:36:04;1049745.00;3.50;1820.78;93376.00;0.31;162.14;;;;;8.10;1.00;;;;;;2260290;61;1023;-81
2021/11/29 14:38:46;860490.00;2.87;1486.83;101935.00;0.34;176.91;;;;;8.10;1.00;;;;;;2260142;61;1292;-83
2021/11/29 14:41:13;360746.00;1.20;622.33;0.00;0.00;0.62;;;;;8.00;1.00;;;;;;2259955;61;1015;-81